createdAt,value
2023-02-25T00:03:06.007Z,5.7
2023-02-25T00:08:05.893Z,5.7
2023-02-25T00:13:17.342Z,5.7
2023-02-25T00:23:05.855Z,5.7
2023-02-25T00:28:05.891Z,5.7
2023-02-25T00:38:15.384Z,5.7
2023-02-25T00:48:05.889Z,5.7
2023-02-25T00:58:05.855Z,5.7
2023-02-25T01:03:05.887Z,5.7
2023-02-25T01:13:05.879Z,5.7
2023-02-25T01:23:05.862Z,5.7
2023-02-25T01:33:05.917Z,5.7
2023-02-25T01:43:05.863Z,5.7
2023-02-25T01:53:05.882Z,5.7
2023-02-25T01:58:05.875Z,5.7
2023-02-25T02:03:05.884Z,5.7
2023-02-25T02:13:05.888Z,5.7
2023-02-25T02:18:05.873Z,5.7
2023-02-25T02:23:05.872Z,5.7
2023-02-25T02:33:05.885Z,5.7
2023-02-25T02:43:05.864Z,5.7
2023-02-25T02:48:05.883Z,5.7
2023-02-25T02:58:05.891Z,5.7
2023-02-25T03:03:05.867Z,5.7
2023-02-25T03:08:05.865Z,5.7
2023-02-25T03:13:05.897Z,5.6
2023-02-25T03:23:05.910Z,5.6
2023-02-25T03:33:05.902Z,5.7
2023-02-25T03:43:08.210Z,5.7
2023-02-25T03:48:05.908Z,5.7
2023-02-25T03:58:05.895Z,5.7
2023-02-25T04:03:05.912Z,5.6
2023-02-25T04:13:05.888Z,5.6
2023-02-25T04:18:05.905Z,5.6
2023-02-25T04:28:05.907Z,5.7
2023-02-25T04:38:08.166Z,5.6
2023-02-25T04:43:05.902Z,5.7
2023-02-25T04:53:05.901Z,5.6
2023-02-25T05:03:05.902Z,5.7
2023-02-25T05:13:06.168Z,5.6
2023-02-25T05:18:05.902Z,5.6
2023-02-25T05:28:07.400Z,5.7
2023-02-25T05:33:06.059Z,5.7
2023-02-25T05:38:05.889Z,5.7
2023-02-25T05:43:05.895Z,5.6
2023-02-25T05:53:05.920Z,5.6
2023-02-25T05:58:05.894Z,5.6
2023-02-25T06:08:05.890Z,5.7
2023-02-25T06:18:05.913Z,5.6
2023-02-25T06:23:05.892Z,5.6
2023-02-25T06:33:05.924Z,5.7
2023-02-25T06:43:05.914Z,5.6
2023-02-25T06:53:05.885Z,5.6
2023-02-25T06:58:05.912Z,5.6
2023-02-25T07:08:05.930Z,5.6
2023-02-25T07:18:05.914Z,5.6
2023-02-25T07:28:05.925Z,5.6
2023-02-25T07:33:06.209Z,5.6
2023-02-25T07:43:05.915Z,5.6
2023-02-25T07:53:05.933Z,5.6
2023-02-25T08:03:05.903Z,5.6
2023-02-25T08:08:05.897Z,5.6
2023-02-25T08:18:05.934Z,5.6
2023-02-25T08:28:05.906Z,5.6
2023-02-25T08:38:05.920Z,5.6
2023-02-25T08:43:05.912Z,5.6
2023-02-25T08:53:05.896Z,5.6
2023-02-25T08:58:05.931Z,5.6
2023-02-25T09:03:05.927Z,5.6
2023-02-25T09:08:05.910Z,5.9
2023-02-25T09:18:05.968Z,6.9
2023-02-25T09:23:05.905Z,6.6
2023-02-25T09:33:06.109Z,6.9
2023-02-25T09:38:05.934Z,6.4
2023-02-25T09:48:05.967Z,6.1
2023-02-25T09:53:05.925Z,5.9
2023-02-25T09:58:05.973Z,5.8
2023-02-25T10:08:05.940Z,5.8
2023-02-25T10:13:05.923Z,5.8
2023-02-25T10:18:05.946Z,5.6
2023-02-25T10:28:05.926Z,5.7
2023-02-25T10:38:05.945Z,5.7
2023-02-25T10:43:05.948Z,5.6
2023-02-25T10:48:05.931Z,5.6
2023-02-25T10:53:05.928Z,5.4
2023-02-25T11:03:05.964Z,6.2
2023-02-25T11:13:05.960Z,6.7
2023-02-25T11:18:05.929Z,6.9
2023-02-25T11:28:05.970Z,7.2
2023-02-25T11:38:05.958Z,7
2023-02-25T11:48:05.970Z,6.6
2023-02-25T11:58:05.928Z,6.4
2023-02-25T12:03:06.029Z,6.4
2023-02-25T12:13:05.955Z,6.2
2023-02-25T12:23:05.925Z,6
2023-02-25T12:28:05.928Z,5.8
2023-02-25T12:38:05.964Z,5.8
2023-02-25T12:48:05.939Z,5.7
2023-02-25T12:53:05.952Z,5.7
2023-02-25T13:03:06.277Z,5.7
2023-02-25T13:13:05.942Z,6.8
2023-02-25T13:23:05.970Z,6.5
2023-02-25T13:33:05.943Z,6.4
2023-02-25T13:43:05.959Z,6.5
2023-02-25T13:53:05.948Z,6.3
2023-02-25T13:58:05.938Z,6.3
2023-02-25T14:03:05.968Z,6.2
2023-02-25T14:08:05.948Z,6.1
2023-02-25T14:18:05.941Z,6.1
2023-02-25T14:23:05.968Z,6.1
2023-02-25T14:33:05.976Z,6
2023-02-25T14:43:06.360Z,5.9
2023-02-25T14:53:05.959Z,5.9
2023-02-25T15:03:05.974Z,8.1
2023-02-25T15:08:05.964Z,7.6
2023-02-25T15:18:05.957Z,7.2
2023-02-25T15:23:05.988Z,6.9
2023-02-25T15:33:05.964Z,6.4
2023-02-25T15:38:05.972Z,6.5
2023-02-25T15:48:06.292Z,6.4
2023-02-25T15:58:05.952Z,6.4
2023-02-25T16:03:14.259Z,6.3
2023-02-25T16:13:05.994Z,6.4
2023-02-25T16:23:05.967Z,6.4
2023-02-25T16:33:06.023Z,6.3
2023-02-25T16:38:05.951Z,6.3
2023-02-25T16:48:05.993Z,6.3
2023-02-25T16:58:06.006Z,6.2
2023-02-25T17:03:05.953Z,6.1
2023-02-25T17:08:05.959Z,6.3
2023-02-25T17:18:05.995Z,6.4
2023-02-25T17:28:05.972Z,6.2
2023-02-25T17:38:05.983Z,6.4
2023-02-25T17:43:05.961Z,6.3
2023-02-25T17:48:05.973Z,6.3
2023-02-25T17:53:05.977Z,6.3
2023-02-25T18:03:06.015Z,6.2
2023-02-25T18:13:05.969Z,6.2
2023-02-25T18:18:05.975Z,6.2
2023-02-25T18:23:06.024Z,6.2
2023-02-25T18:28:06.006Z,6.1
2023-02-25T18:38:05.987Z,6.2
2023-02-25T18:48:06.045Z,10.7
2023-02-25T18:58:05.988Z,9.4
2023-02-25T19:08:06.019Z,8.5
2023-02-25T19:18:05.986Z,8
2023-02-25T19:28:06.029Z,7.6
2023-02-25T19:38:06.002Z,7.4
2023-02-25T19:43:05.988Z,7.3
2023-02-25T19:53:06.002Z,7.1
2023-02-25T19:58:05.999Z,7
2023-02-25T20:03:06.001Z,7
2023-02-25T20:13:06.017Z,6.9
2023-02-25T20:23:05.989Z,6.8
2023-02-25T20:28:06.012Z,6.8
2023-02-25T20:38:06.028Z,6.8
2023-02-25T20:48:06.007Z,6.8
2023-02-25T20:53:06.004Z,6.8
2023-02-25T21:03:06.201Z,6.7
2023-02-25T21:08:05.997Z,6.7
2023-02-25T21:13:06.000Z,6.6
2023-02-25T21:23:06.017Z,6.7
2023-02-25T21:28:05.992Z,6.7
2023-02-25T21:33:08.225Z,6.7
2023-02-25T21:38:06.220Z,6.7
2023-02-25T21:48:06.052Z,6.6
2023-02-25T21:58:06.020Z,6.7
2023-02-25T22:03:06.054Z,6.7
2023-02-25T22:13:06.048Z,6.7
2023-02-25T22:18:06.020Z,6.7
2023-02-25T22:28:06.032Z,6.6
2023-02-25T22:33:06.082Z,6.6
2023-02-25T22:43:06.038Z,6.5
2023-02-25T22:48:06.054Z,6.7
2023-02-25T22:58:06.067Z,6.5
2023-02-25T23:08:06.035Z,6.5
2023-02-25T23:13:06.051Z,6.5
2023-02-25T23:23:06.063Z,6.5
2023-02-25T23:33:06.032Z,6.5
2023-02-25T23:38:06.034Z,6.4
2023-02-25T23:48:06.074Z,6.4
2023-02-25T23:58:06.036Z,6.5
